sensor_id;sensor_type;location;lat;lon;timestamp;P1;durP1;ratioP1;P2;durP2;ratioP2
27163;SDS011;14685;50.618;7.024;2023-04-24T00:02:01;1.92;;;0.60;;
27163;SDS011;14685;50.618;7.024;2023-04-24T00:04:29;0.40;;;0.40;;
27163;SDS011;14685;50.618;7.024;2023-04-24T00:06:58;1.05;;;0.60;;
27163;SDS011;14685;50.618;7.024;2023-04-24T00:09:26;3.40;;;0.75;;
27163;SDS011;14685;50.618;7.024;2023-04-24T00:11:53;0.85;;;0.70;;
27163;SDS011;14685;50.618;7.024;2023-04-24T00:14:22;1.30;;;0.52;;
27163;SDS011;14685;50.618;7.024;2023-04-24T00:16:49;0.80;;;0.50;;
27163;SDS011;14685;50.618;7.024;2023-04-24T00:19:16;0.50;;;0.50;;
27163;SDS011;14685;50.618;7.024;2023-04-24T00:21:43;0.60;;;0.60;;
27163;SDS011;14685;50.618;7.024;2023-04-24T00:24:10;0.77;;;0.73;;
27163;SDS011;14685;50.618;7.024;2023-04-24T00:26:37;1.73;;;0.50;;
27163;SDS011;14685;50.618;7.024;2023-04-24T00:29:04;1.00;;;0.60;;
27163;SDS011;14685;50.618;7.024;2023-04-24T00:31:31;1.80;;;0.52;;
27163;SDS011;14685;50.618;7.024;2023-04-24T00:34:01;0.85;;;0.50;;
27163;SDS011;14685;50.618;7.024;2023-04-24T00:36:28;2.13;;;0.63;;
27163;SDS011;14685;50.618;7.024;2023-04-24T00:38:57;2.30;;;0.63;;
27163;SDS011;14685;50.618;7.024;2023-04-24T00:41:25;0.68;;;0.60;;
27163;SDS011;14685;50.618;7.024;2023-04-24T00:43:53;0.70;;;0.52;;
27163;SDS011;14685;50.618;7.024;2023-04-24T00:46:20;0.90;;;0.50;;
27163;SDS011;14685;50.618;7.024;2023-04-24T00:48:47;0.85;;;0.70;;
27163;SDS011;14685;50.618;7.024;2023-04-24T00:51:15;0.50;;;0.50;;
27163;SDS011;14685;50.618;7.024;2023-04-24T00:53:42;2.13;;;0.60;;
27163;SDS011;14685;50.618;7.024;2023-04-24T00:56:09;0.52;;;0.50;;
27163;SDS011;14685;50.618;7.024;2023-04-24T00:58:36;2.40;;;0.77;;
27163;SDS011;14685;50.618;7.024;2023-04-24T01:01:04;3.33;;;0.60;;
27163;SDS011;14685;50.618;7.024;2023-04-24T01:03:33;1.00;;;0.50;;
27163;SDS011;14685;50.618;7.024;2023-04-24T01:06:03;4.00;;;0.50;;
27163;SDS011;14685;50.618;7.024;2023-04-24T01:08:31;1.55;;;0.60;;
27163;SDS011;14685;50.618;7.024;2023-04-24T01:10:59;0.45;;;0.45;;
27163;SDS011;14685;50.618;7.024;2023-04-24T01:13:29;0.68;;;0.60;;
27163;SDS011;14685;50.618;7.024;2023-04-24T01:15:57;1.85;;;0.88;;
27163;SDS011;14685;50.618;7.024;2023-04-24T01:18:27;1.02;;;0.60;;
27163;SDS011;14685;50.618;7.024;2023-04-24T01:20:56;1.02;;;0.80;;
27163;SDS011;14685;50.618;7.024;2023-04-24T01:23:25;1.33;;;1.02;;
27163;SDS011;14685;50.618;7.024;2023-04-24T01:25:52;1.30;;;1.20;;
27163;SDS011;14685;50.618;7.024;2023-04-24T01:28:20;1.67;;;1.42;;
27163;SDS011;14685;50.618;7.024;2023-04-24T01:30:48;2.33;;;1.52;;
27163;SDS011;14685;50.618;7.024;2023-04-24T01:33:15;2.72;;;1.40;;
27163;SDS011;14685;50.618;7.024;2023-04-24T01:35:42;1.85;;;1.50;;
27163;SDS011;14685;50.618;7.024;2023-04-24T01:38:09;1.60;;;1.50;;
27163;SDS011;14685;50.618;7.024;2023-04-24T01:40:38;1.33;;;1.23;;
27163;SDS011;14685;50.618;7.024;2023-04-24T01:43:05;1.85;;;1.75;;
27163;SDS011;14685;50.618;7.024;2023-04-24T01:45:32;2.03;;;1.75;;
27163;SDS011;14685;50.618;7.024;2023-04-24T01:48:00;2.60;;;1.77;;
27163;SDS011;14685;50.618;7.024;2023-04-24T01:50:27;2.67;;;2.03;;
27163;SDS011;14685;50.618;7.024;2023-04-24T01:52:54;1.75;;;1.65;;
27163;SDS011;14685;50.618;7.024;2023-04-24T01:55:21;4.07;;;1.85;;
27163;SDS011;14685;50.618;7.024;2023-04-24T01:57:48;4.95;;;2.10;;
27163;SDS011;14685;50.618;7.024;2023-04-24T02:00:16;2.28;;;2.08;;
27163;SDS011;14685;50.618;7.024;2023-04-24T02:02:44;3.38;;;2.13;;
27163;SDS011;14685;50.618;7.024;2023-04-24T02:05:13;3.08;;;2.60;;
27163;SDS011;14685;50.618;7.024;2023-04-24T02:07:42;3.17;;;2.88;;
27163;SDS011;14685;50.618;7.024;2023-04-24T02:10:09;2.63;;;2.40;;
27163;SDS011;14685;50.618;7.024;2023-04-24T02:12:37;4.28;;;2.60;;
27163;SDS011;14685;50.618;7.024;2023-04-24T02:15:04;2.90;;;2.65;;
27163;SDS011;14685;50.618;7.024;2023-04-24T02:17:31;2.63;;;2.42;;
27163;SDS011;14685;50.618;7.024;2023-04-24T02:19:58;4.68;;;3.50;;
27163;SDS011;14685;50.618;7.024;2023-04-24T02:22:25;4.97;;;3.90;;
27163;SDS011;14685;50.618;7.024;2023-04-24T02:24:52;5.30;;;3.50;;
27163;SDS011;14685;50.618;7.024;2023-04-24T02:27:19;5.35;;;4.03;;
27163;SDS011;14685;50.618;7.024;2023-04-24T02:29:46;5.53;;;3.65;;
27163;SDS011;14685;50.618;7.024;2023-04-24T02:32:13;5.28;;;3.60;;
27163;SDS011;14685;50.618;7.024;2023-04-24T02:34:42;3.72;;;3.38;;
27163;SDS011;14685;50.618;7.024;2023-04-24T02:37:10;4.60;;;3.50;;
27163;SDS011;14685;50.618;7.024;2023-04-24T02:39:37;5.13;;;4.35;;
27163;SDS011;14685;50.618;7.024;2023-04-24T02:42:04;6.03;;;4.07;;
27163;SDS011;14685;50.618;7.024;2023-04-24T02:44:31;5.20;;;4.13;;
27163;SDS011;14685;50.618;7.024;2023-04-24T02:46:59;4.78;;;3.50;;
27163;SDS011;14685;50.618;7.024;2023-04-24T02:49:26;3.75;;;3.35;;
27163;SDS011;14685;50.618;7.024;2023-04-24T02:51:53;5.82;;;3.90;;
27163;SDS011;14685;50.618;7.024;2023-04-24T02:54:22;6.32;;;4.57;;
27163;SDS011;14685;50.618;7.024;2023-04-24T02:56:49;5.30;;;4.35;;
27163;SDS011;14685;50.618;7.024;2023-04-24T02:59:16;5.38;;;4.60;;
27163;SDS011;14685;50.618;7.024;2023-04-24T03:01:43;6.22;;;4.85;;
27163;SDS011;14685;50.618;7.024;2023-04-24T03:04:14;6.97;;;4.32;;
27163;SDS011;14685;50.618;7.024;2023-04-24T03:06:42;4.88;;;4.07;;
27163;SDS011;14685;50.618;7.024;2023-04-24T03:09:10;5.65;;;4.05;;
27163;SDS011;14685;50.618;7.024;2023-04-24T03:11:37;5.78;;;3.83;;
27163;SDS011;14685;50.618;7.024;2023-04-24T03:14:06;4.93;;;4.05;;
27163;SDS011;14685;50.618;7.024;2023-04-24T03:16:35;4.20;;;3.53;;
27163;SDS011;14685;50.618;7.024;2023-04-24T03:19:03;5.82;;;4.03;;
27163;SDS011;14685;50.618;7.024;2023-04-24T03:21:30;5.50;;;4.40;;
27163;SDS011;14685;50.618;7.024;2023-04-24T03:24:02;6.47;;;4.55;;
27163;SDS011;14685;50.618;7.024;2023-04-24T03:26:29;5.70;;;4.75;;
27163;SDS011;14685;50.618;7.024;2023-04-24T03:28:56;7.03;;;4.25;;
27163;SDS011;14685;50.618;7.024;2023-04-24T03:31:23;5.57;;;4.45;;
27163;SDS011;14685;50.618;7.024;2023-04-24T03:33:49;5.15;;;4.28;;
27163;SDS011;14685;50.618;7.024;2023-04-24T03:36:19;7.80;;;4.95;;
27163;SDS011;14685;50.618;7.024;2023-04-24T03:38:46;7.15;;;4.40;;
27163;SDS011;14685;50.618;7.024;2023-04-24T03:41:13;5.28;;;4.47;;
27163;SDS011;14685;50.618;7.024;2023-04-24T03:43:41;6.55;;;4.80;;
27163;SDS011;14685;50.618;7.024;2023-04-24T03:46:09;4.85;;;4.35;;
27163;SDS011;14685;50.618;7.024;2023-04-24T03:48:37;7.07;;;4.90;;
27163;SDS011;14685;50.618;7.024;2023-04-24T03:51:03;5.90;;;4.68;;
27163;SDS011;14685;50.618;7.024;2023-04-24T03:53:31;6.65;;;4.47;;
27163;SDS011;14685;50.618;7.024;2023-04-24T03:55:57;8.38;;;4.85;;
27163;SDS011;14685;50.618;7.024;2023-04-24T03:58:24;7.03;;;4.95;;
27163;SDS011;14685;50.618;7.024;2023-04-24T04:00:51;4.97;;;4.47;;
27163;SDS011;14685;50.618;7.024;2023-04-24T04:03:18;5.68;;;4.88;;
27163;SDS011;14685;50.618;7.024;2023-04-24T04:05:46;8.10;;;5.32;;
27163;SDS011;14685;50.618;7.024;2023-04-24T04:08:12;8.10;;;4.13;;
27163;SDS011;14685;50.618;7.024;2023-04-24T04:10:39;4.50;;;4.10;;
27163;SDS011;14685;50.618;7.024;2023-04-24T04:13:06;8.45;;;4.80;;
27163;SDS011;14685;50.618;7.024;2023-04-24T04:15:33;5.00;;;4.50;;
27163;SDS011;14685;50.618;7.024;2023-04-24T04:18:00;8.50;;;4.53;;
27163;SDS011;14685;50.618;7.024;2023-04-24T04:20:26;5.50;;;4.82;;
27163;SDS011;14685;50.618;7.024;2023-04-24T04:22:53;5.32;;;4.80;;
27163;SDS011;14685;50.618;7.024;2023-04-24T04:25:20;5.22;;;4.68;;
27163;SDS011;14685;50.618;7.024;2023-04-24T04:27:47;6.35;;;4.88;;
27163;SDS011;14685;50.618;7.024;2023-04-24T04:30:17;5.15;;;4.47;;
27163;SDS011;14685;50.618;7.024;2023-04-24T04:32:44;5.30;;;4.47;;
27163;SDS011;14685;50.618;7.024;2023-04-24T04:35:11;5.93;;;4.47;;
27163;SDS011;14685;50.618;7.024;2023-04-24T04:37:38;6.60;;;4.85;;
27163;SDS011;14685;50.618;7.024;2023-04-24T04:40:06;7.60;;;4.88;;
27163;SDS011;14685;50.618;7.024;2023-04-24T04:42:33;4.68;;;4.18;;
27163;SDS011;14685;50.618;7.024;2023-04-24T04:45:00;7.05;;;5.28;;
27163;SDS011;14685;50.618;7.024;2023-04-24T04:47:28;8.35;;;4.65;;
27163;SDS011;14685;50.618;7.024;2023-04-24T04:49:58;6.57;;;4.53;;
27163;SDS011;14685;50.618;7.024;2023-04-24T04:52:25;9.43;;;4.65;;
27163;SDS011;14685;50.618;7.024;2023-04-24T04:54:53;4.97;;;4.47;;
27163;SDS011;14685;50.618;7.024;2023-04-24T04:57:20;6.43;;;4.47;;
27163;SDS011;14685;50.618;7.024;2023-04-24T04:59:47;5.30;;;3.97;;
27163;SDS011;14685;50.618;7.024;2023-04-24T05:02:15;6.78;;;4.10;;
27163;SDS011;14685;50.618;7.024;2023-04-24T05:04:42;4.80;;;4.35;;
27163;SDS011;14685;50.618;7.024;2023-04-24T05:07:11;6.03;;;5.20;;
27163;SDS011;14685;50.618;7.024;2023-04-24T05:09:38;6.05;;;4.82;;
27163;SDS011;14685;50.618;7.024;2023-04-24T05:12:06;5.97;;;4.97;;
27163;SDS011;14685;50.618;7.024;2023-04-24T05:14:35;7.35;;;4.75;;
27163;SDS011;14685;50.618;7.024;2023-04-24T05:17:02;6.53;;;4.88;;
27163;SDS011;14685;50.618;7.024;2023-04-24T05:19:29;8.10;;;5.50;;
27163;SDS011;14685;50.618;7.024;2023-04-24T05:22:00;9.52;;;5.70;;
27163;SDS011;14685;50.618;7.024;2023-04-24T05:24:29;8.60;;;5.45;;
27163;SDS011;14685;50.618;7.024;2023-04-24T05:26:56;6.13;;;5.03;;
27163;SDS011;14685;50.618;7.024;2023-04-24T05:29:25;8.50;;;5.72;;
27163;SDS011;14685;50.618;7.024;2023-04-24T05:31:52;6.80;;;5.28;;
27163;SDS011;14685;50.618;7.024;2023-04-24T05:34:19;8.35;;;5.93;;
27163;SDS011;14685;50.618;7.024;2023-04-24T05:36:46;7.00;;;5.25;;
27163;SDS011;14685;50.618;7.024;2023-04-24T05:39:14;8.98;;;5.82;;
27163;SDS011;14685;50.618;7.024;2023-04-24T05:41:41;6.78;;;4.75;;
27163;SDS011;14685;50.618;7.024;2023-04-24T05:44:09;6.95;;;5.72;;
27163;SDS011;14685;50.618;7.024;2023-04-24T05:46:36;9.45;;;5.82;;
27163;SDS011;14685;50.618;7.024;2023-04-24T05:49:03;9.07;;;6.07;;
27163;SDS011;14685;50.618;7.024;2023-04-24T05:51:30;6.63;;;4.78;;
27163;SDS011;14685;50.618;7.024;2023-04-24T05:53:57;8.05;;;5.47;;
27163;SDS011;14685;50.618;7.024;2023-04-24T05:56:26;6.75;;;5.18;;
27163;SDS011;14685;50.618;7.024;2023-04-24T05:58:53;6.68;;;5.40;;
27163;SDS011;14685;50.618;7.024;2023-04-24T06:01:22;7.03;;;5.60;;
27163;SDS011;14685;50.618;7.024;2023-04-24T06:03:51;7.63;;;5.20;;
27163;SDS011;14685;50.618;7.024;2023-04-24T06:06:19;6.55;;;5.70;;
27163;SDS011;14685;50.618;7.024;2023-04-24T06:08:46;9.88;;;6.75;;
27163;SDS011;14685;50.618;7.024;2023-04-24T06:11:13;8.70;;;5.85;;
27163;SDS011;14685;50.618;7.024;2023-04-24T06:13:40;9.32;;;5.95;;
27163;SDS011;14685;50.618;7.024;2023-04-24T06:16:07;9.27;;;5.82;;
27163;SDS011;14685;50.618;7.024;2023-04-24T06:18:34;9.80;;;7.10;;
27163;SDS011;14685;50.618;7.024;2023-04-24T06:21:01;7.85;;;6.20;;
27163;SDS011;14685;50.618;7.024;2023-04-24T06:23:30;7.30;;;6.00;;
27163;SDS011;14685;50.618;7.024;2023-04-24T06:25:59;8.25;;;6.35;;
27163;SDS011;14685;50.618;7.024;2023-04-24T06:28:26;8.05;;;5.80;;
27163;SDS011;14685;50.618;7.024;2023-04-24T06:30:54;12.85;;;6.22;;
27163;SDS011;14685;50.618;7.024;2023-04-24T06:33:21;6.82;;;5.88;;
27163;SDS011;14685;50.618;7.024;2023-04-24T06:35:49;10.48;;;6.00;;
27163;SDS011;14685;50.618;7.024;2023-04-24T06:38:16;7.82;;;6.13;;
27163;SDS011;14685;50.618;7.024;2023-04-24T06:40:43;7.82;;;5.60;;
27163;SDS011;14685;50.618;7.024;2023-04-24T06:43:10;6.60;;;4.70;;
27163;SDS011;14685;50.618;7.024;2023-04-24T06:45:37;5.18;;;4.53;;
27163;SDS011;14685;50.618;7.024;2023-04-24T06:48:06;6.03;;;4.82;;
27163;SDS011;14685;50.618;7.024;2023-04-24T06:50:34;5.05;;;4.30;;
27163;SDS011;14685;50.618;7.024;2023-04-24T06:53:01;6.78;;;3.58;;
27163;SDS011;14685;50.618;7.024;2023-04-24T06:55:28;5.30;;;3.20;;
27163;SDS011;14685;50.618;7.024;2023-04-24T06:57:57;3.78;;;3.35;;
27163;SDS011;14685;50.618;7.024;2023-04-24T07:00:26;3.90;;;3.45;;
27163;SDS011;14685;50.618;7.024;2023-04-24T07:02:56;3.50;;;3.08;;
27163;SDS011;14685;50.618;7.024;2023-04-24T07:05:24;3.40;;;2.75;;
27163;SDS011;14685;50.618;7.024;2023-04-24T07:07:51;3.60;;;2.95;;
27163;SDS011;14685;50.618;7.024;2023-04-24T07:10:18;4.03;;;2.78;;
27163;SDS011;14685;50.618;7.024;2023-04-24T07:12:47;3.53;;;2.40;;
27163;SDS011;14685;50.618;7.024;2023-04-24T07:15:13;3.17;;;2.35;;
27163;SDS011;14685;50.618;7.024;2023-04-24T07:17:40;2.53;;;2.15;;
27163;SDS011;14685;50.618;7.024;2023-04-24T07:20:10;2.47;;;2.10;;
27163;SDS011;14685;50.618;7.024;2023-04-24T07:22:41;3.75;;;2.10;;
27163;SDS011;14685;50.618;7.024;2023-04-24T07:25:08;2.45;;;2.15;;
27163;SDS011;14685;50.618;7.024;2023-04-24T07:27:35;2.20;;;1.92;;
27163;SDS011;14685;50.618;7.024;2023-04-24T07:30:04;2.50;;;2.13;;
27163;SDS011;14685;50.618;7.024;2023-04-24T07:32:31;2.42;;;2.10;;
27163;SDS011;14685;50.618;7.024;2023-04-24T07:34:58;1.77;;;1.67;;
27163;SDS011;14685;50.618;7.024;2023-04-24T07:37:27;2.58;;;2.10;;
27163;SDS011;14685;50.618;7.024;2023-04-24T07:39:54;2.80;;;1.50;;
27163;SDS011;14685;50.618;7.024;2023-04-24T07:42:21;3.15;;;2.00;;
27163;SDS011;14685;50.618;7.024;2023-04-24T07:44:48;1.67;;;1.58;;
27163;SDS011;14685;50.618;7.024;2023-04-24T07:47:15;2.08;;;1.60;;
27163;SDS011;14685;50.618;7.024;2023-04-24T07:49:42;1.92;;;1.83;;
27163;SDS011;14685;50.618;7.024;2023-04-24T07:52:10;1.70;;;1.55;;
27163;SDS011;14685;50.618;7.024;2023-04-24T07:54:37;1.27;;;1.25;;
27163;SDS011;14685;50.618;7.024;2023-04-24T07:57:04;1.52;;;1.42;;
27163;SDS011;14685;50.618;7.024;2023-04-24T07:59:32;1.80;;;1.25;;
27163;SDS011;14685;50.618;7.024;2023-04-24T08:02:00;1.88;;;1.42;;
27163;SDS011;14685;50.618;7.024;2023-04-24T08:04:28;2.30;;;1.48;;
27163;SDS011;14685;50.618;7.024;2023-04-24T08:06:55;1.40;;;1.30;;
27163;SDS011;14685;50.618;7.024;2023-04-24T08:09:22;1.20;;;1.10;;
27163;SDS011;14685;50.618;7.024;2023-04-24T08:11:52;2.55;;;1.40;;
27163;SDS011;14685;50.618;7.024;2023-04-24T08:14:20;1.27;;;1.17;;
27163;SDS011;14685;50.618;7.024;2023-04-24T08:16:47;1.48;;;0.90;;
27163;SDS011;14685;50.618;7.024;2023-04-24T08:19:14;1.02;;;0.80;;
27163;SDS011;14685;50.618;7.024;2023-04-24T08:21:41;0.70;;;0.68;;
27163;SDS011;14685;50.618;7.024;2023-04-24T08:24:08;0.68;;;0.68;;
27163;SDS011;14685;50.618;7.024;2023-04-24T08:26:36;2.13;;;0.93;;
27163;SDS011;14685;50.618;7.024;2023-04-24T08:29:04;0.70;;;0.70;;
27163;SDS011;14685;50.618;7.024;2023-04-24T08:31:32;2.00;;;0.90;;
27163;SDS011;14685;50.618;7.024;2023-04-24T08:34:02;1.17;;;0.80;;
27163;SDS011;14685;50.618;7.024;2023-04-24T08:36:29;2.03;;;0.77;;
27163;SDS011;14685;50.618;7.024;2023-04-24T08:39:11;1.80;;;1.00;;
27163;SDS011;14685;50.618;7.024;2023-04-24T08:41:38;1.75;;;1.13;;
27163;SDS011;14685;50.618;7.024;2023-04-24T08:44:09;1.67;;;0.90;;
27163;SDS011;14685;50.618;7.024;2023-04-24T08:46:38;1.17;;;1.00;;
27163;SDS011;14685;50.618;7.024;2023-04-24T08:49:07;1.77;;;0.90;;
27163;SDS011;14685;50.618;7.024;2023-04-24T08:51:34;1.60;;;1.10;;
27163;SDS011;14685;50.618;7.024;2023-04-24T08:54:04;1.77;;;1.15;;
27163;SDS011;14685;50.618;7.024;2023-04-24T08:56:31;1.27;;;1.00;;
27163;SDS011;14685;50.618;7.024;2023-04-24T08:59:00;1.90;;;1.35;;
27163;SDS011;14685;50.618;7.024;2023-04-24T09:01:27;3.47;;;1.20;;
27163;SDS011;14685;50.618;7.024;2023-04-24T09:03:55;1.15;;;0.90;;
27163;SDS011;14685;50.618;7.024;2023-04-24T09:06:23;0.90;;;0.90;;
27163;SDS011;14685;50.618;7.024;2023-04-24T09:08:51;0.95;;;0.80;;
27163;SDS011;14685;50.618;7.024;2023-04-24T09:11:22;1.00;;;0.80;;
27163;SDS011;14685;50.618;7.024;2023-04-24T09:13:56;1.90;;;1.00;;
27163;SDS011;14685;50.618;7.024;2023-04-24T09:16:24;1.42;;;1.10;;
27163;SDS011;14685;50.618;7.024;2023-04-24T09:22:30;1.13;;;0.70;;
27163;SDS011;14685;50.618;7.024;2023-04-24T09:25:07;4.10;;;1.48;;
27163;SDS011;14685;50.618;7.024;2023-04-24T09:27:35;2.72;;;1.10;;
27163;SDS011;14685;50.618;7.024;2023-04-24T09:30:03;1.00;;;1.00;;
27163;SDS011;14685;50.618;7.024;2023-04-24T09:32:31;1.25;;;1.15;;
27163;SDS011;14685;50.618;7.024;2023-04-24T09:35:05;1.30;;;0.95;;
27163;SDS011;14685;50.618;7.024;2023-04-24T09:37:46;1.30;;;1.00;;
27163;SDS011;14685;50.618;7.024;2023-04-24T09:40:16;1.55;;;1.30;;
27163;SDS011;14685;50.618;7.024;2023-04-24T09:43:18;1.75;;;0.98;;
27163;SDS011;14685;50.618;7.024;2023-04-24T09:45:38;0.93;;;0.93;;
27163;SDS011;14685;50.618;7.024;2023-04-24T09:48:09;1.23;;;1.05;;
27163;SDS011;14685;50.618;7.024;2023-04-24T09:50:37;1.38;;;1.17;;
27163;SDS011;14685;50.618;7.024;2023-04-24T09:53:04;2.00;;;1.10;;
27163;SDS011;14685;50.618;7.024;2023-04-24T09:55:38;1.20;;;1.10;;
27163;SDS011;14685;50.618;7.024;2023-04-24T09:58:08;1.95;;;1.48;;
27163;SDS011;14685;50.618;7.024;2023-04-24T10:00:35;2.80;;;1.23;;
27163;SDS011;14685;50.618;7.024;2023-04-24T10:03:05;1.33;;;1.23;;
27163;SDS011;14685;50.618;7.024;2023-04-24T10:05:37;1.65;;;1.20;;
27163;SDS011;14685;50.618;7.024;2023-04-24T10:08:08;2.25;;;1.27;;
27163;SDS011;14685;50.618;7.024;2023-04-24T10:10:45;3.22;;;1.58;;
27163;SDS011;14685;50.618;7.024;2023-04-24T10:13:13;1.58;;;1.48;;
27163;SDS011;14685;50.618;7.024;2023-04-24T10:15:42;2.40;;;2.10;;
27163;SDS011;14685;50.618;7.024;2023-04-24T10:18:09;1.55;;;1.45;;
27163;SDS011;14685;50.618;7.024;2023-04-24T10:20:37;4.15;;;2.08;;
27163;SDS011;14685;50.618;7.024;2023-04-24T10:23:05;2.65;;;2.40;;
27163;SDS011;14685;50.618;7.024;2023-04-24T10:25:33;2.97;;;2.70;;
27163;SDS011;14685;50.618;7.024;2023-04-24T10:28:03;2.58;;;2.35;;
27163;SDS011;14685;50.618;7.024;2023-04-24T10:30:33;4.35;;;2.63;;
27163;SDS011;14685;50.618;7.024;2023-04-24T10:33:04;4.85;;;3.00;;
27163;SDS011;14685;50.618;7.024;2023-04-24T10:35:35;4.95;;;3.17;;
27163;SDS011;14685;50.618;7.024;2023-04-24T10:38:06;4.32;;;2.50;;
27163;SDS011;14685;50.618;7.024;2023-04-24T10:40:37;4.22;;;2.88;;
27163;SDS011;14685;50.618;7.024;2023-04-24T10:43:04;4.35;;;2.97;;
27163;SDS011;14685;50.618;7.024;2023-04-24T10:45:38;5.07;;;2.88;;
27163;SDS011;14685;50.618;7.024;2023-04-24T10:48:06;6.45;;;3.00;;
27163;SDS011;14685;50.618;7.024;2023-04-24T10:50:47;4.50;;;3.15;;
27163;SDS011;14685;50.618;7.024;2023-04-24T10:53:23;5.30;;;3.45;;
27163;SDS011;14685;50.618;7.024;2023-04-24T10:56:04;5.75;;;3.60;;
27163;SDS011;14685;50.618;7.024;2023-04-24T10:58:41;4.25;;;3.70;;
27163;SDS011;14685;50.618;7.024;2023-04-24T11:04:00;7.63;;;4.28;;
27163;SDS011;14685;50.618;7.024;2023-04-24T11:09:10;6.82;;;4.63;;
27163;SDS011;14685;50.618;7.024;2023-04-24T11:11:46;8.95;;;4.32;;
27163;SDS011;14685;50.618;7.024;2023-04-24T11:14:16;8.75;;;4.65;;
27163;SDS011;14685;50.618;7.024;2023-04-24T11:16:53;8.63;;;4.78;;
27163;SDS011;14685;50.618;7.024;2023-04-24T11:19:24;11.75;;;5.32;;
27163;SDS011;14685;50.618;7.024;2023-04-24T11:24:32;9.15;;;4.80;;
27163;SDS011;14685;50.618;7.024;2023-04-24T11:29:58;7.15;;;4.82;;
27163;SDS011;14685;50.618;7.024;2023-04-24T11:35:12;6.47;;;4.00;;
27163;SDS011;14685;50.618;7.024;2023-04-24T11:37:40;5.65;;;4.22;;
27163;SDS011;14685;50.618;7.024;2023-04-24T11:40:09;7.53;;;4.05;;
27163;SDS011;14685;50.618;7.024;2023-04-24T11:42:39;8.48;;;4.57;;
27163;SDS011;14685;50.618;7.024;2023-04-24T11:47:34;8.93;;;3.83;;
27163;SDS011;14685;50.618;7.024;2023-04-24T11:50:01;5.97;;;4.28;;
27163;SDS011;14685;50.618;7.024;2023-04-24T11:52:30;5.93;;;4.30;;
27163;SDS011;14685;50.618;7.024;2023-04-24T11:54:57;4.75;;;3.95;;
27163;SDS011;14685;50.618;7.024;2023-04-24T11:57:27;6.72;;;4.40;;
27163;SDS011;14685;50.618;7.024;2023-04-24T12:00:00;6.33;;;4.10;;
27163;SDS011;14685;50.618;7.024;2023-04-24T12:02:30;5.93;;;4.90;;
27163;SDS011;14685;50.618;7.024;2023-04-24T12:04:57;7.60;;;4.97;;
27163;SDS011;14685;50.618;7.024;2023-04-24T12:07:25;8.93;;;5.47;;
27163;SDS011;14685;50.618;7.024;2023-04-24T12:09:57;11.52;;;5.90;;
27163;SDS011;14685;50.618;7.024;2023-04-24T12:12:27;9.13;;;6.22;;
27163;SDS011;14685;50.618;7.024;2023-04-24T12:14:56;11.65;;;6.60;;
27163;SDS011;14685;50.618;7.024;2023-04-24T12:17:27;11.93;;;7.15;;
27163;SDS011;14685;50.618;7.024;2023-04-24T12:20:04;11.77;;;6.50;;
27163;SDS011;14685;50.618;7.024;2023-04-24T12:22:46;11.32;;;6.00;;
27163;SDS011;14685;50.618;7.024;2023-04-24T12:25:28;12.10;;;6.32;;
27163;SDS011;14685;50.618;7.024;2023-04-24T12:30:50;9.52;;;6.43;;
27163;SDS011;14685;50.618;7.024;2023-04-24T12:33:21;11.48;;;5.80;;
27163;SDS011;14685;50.618;7.024;2023-04-24T12:35:50;12.55;;;7.07;;
27163;SDS011;14685;50.618;7.024;2023-04-24T12:38:22;10.73;;;5.35;;
27163;SDS011;14685;50.618;7.024;2023-04-24T12:41:07;11.25;;;6.32;;
27163;SDS011;14685;50.618;7.024;2023-04-24T12:43:50;13.02;;;6.95;;
27163;SDS011;14685;50.618;7.024;2023-04-24T12:46:17;10.48;;;6.88;;
27163;SDS011;14685;50.618;7.024;2023-04-24T12:48:47;12.55;;;5.90;;
27163;SDS011;14685;50.618;7.024;2023-04-24T12:51:14;7.97;;;5.82;;
27163;SDS011;14685;50.618;7.024;2023-04-24T12:53:46;9.20;;;5.32;;
27163;SDS011;14685;50.618;7.024;2023-04-24T12:56:13;9.52;;;5.55;;
27163;SDS011;14685;50.618;7.024;2023-04-24T12:58:41;7.18;;;5.18;;
27163;SDS011;14685;50.618;7.024;2023-04-24T13:01:08;9.55;;;5.43;;
27163;SDS011;14685;50.618;7.024;2023-04-24T13:03:35;11.70;;;6.50;;
27163;SDS011;14685;50.618;7.024;2023-04-24T13:06:03;14.02;;;6.47;;
27163;SDS011;14685;50.618;7.024;2023-04-24T13:08:33;9.52;;;6.53;;
27163;SDS011;14685;50.618;7.024;2023-04-24T13:10:59;11.70;;;7.10;;
27163;SDS011;14685;50.618;7.024;2023-04-24T13:13:27;10.07;;;6.63;;
27163;SDS011;14685;50.618;7.024;2023-04-24T13:15:53;10.15;;;6.22;;
27163;SDS011;14685;50.618;7.024;2023-04-24T13:18:20;10.68;;;6.50;;
27163;SDS011;14685;50.618;7.024;2023-04-24T13:20:48;10.75;;;6.28;;
27163;SDS011;14685;50.618;7.024;2023-04-24T13:23:15;10.98;;;6.25;;
27163;SDS011;14685;50.618;7.024;2023-04-24T13:25:44;7.63;;;5.45;;
27163;SDS011;14685;50.618;7.024;2023-04-24T13:28:11;12.23;;;6.95;;
27163;SDS011;14685;50.618;7.024;2023-04-24T13:30:38;13.05;;;6.95;;
27163;SDS011;14685;50.618;7.024;2023-04-24T13:33:07;12.55;;;6.57;;
27163;SDS011;14685;50.618;7.024;2023-04-24T13:35:34;12.50;;;7.53;;
27163;SDS011;14685;50.618;7.024;2023-04-24T13:38:01;14.70;;;7.82;;
27163;SDS011;14685;50.618;7.024;2023-04-24T13:40:32;10.85;;;6.90;;
27163;SDS011;14685;50.618;7.024;2023-04-24T13:42:59;11.18;;;6.43;;
27163;SDS011;14685;50.618;7.024;2023-04-24T13:45:27;15.35;;;7.13;;
27163;SDS011;14685;50.618;7.024;2023-04-24T13:47:54;14.27;;;6.45;;
27163;SDS011;14685;50.618;7.024;2023-04-24T13:50:21;13.13;;;6.40;;
27163;SDS011;14685;50.618;7.024;2023-04-24T13:52:48;10.20;;;7.05;;
27163;SDS011;14685;50.618;7.024;2023-04-24T13:55:15;12.15;;;7.00;;
27163;SDS011;14685;50.618;7.024;2023-04-24T13:57:42;8.23;;;5.80;;
27163;SDS011;14685;50.618;7.024;2023-04-24T14:00:12;14.00;;;6.90;;
27163;SDS011;14685;50.618;7.024;2023-04-24T14:02:40;12.40;;;7.28;;
27163;SDS011;14685;50.618;7.024;2023-04-24T14:05:08;10.15;;;7.10;;
27163;SDS011;14685;50.618;7.024;2023-04-24T14:07:37;13.07;;;7.28;;
27163;SDS011;14685;50.618;7.024;2023-04-24T14:10:04;12.18;;;7.72;;
27163;SDS011;14685;50.618;7.024;2023-04-24T14:12:32;13.63;;;7.13;;
27163;SDS011;14685;50.618;7.024;2023-04-24T14:14:59;10.45;;;6.07;;
27163;SDS011;14685;50.618;7.024;2023-04-24T14:17:26;10.50;;;6.85;;
27163;SDS011;14685;50.618;7.024;2023-04-24T14:19:53;8.85;;;4.70;;
27163;SDS011;14685;50.618;7.024;2023-04-24T14:22:22;10.73;;;5.75;;
27163;SDS011;14685;50.618;7.024;2023-04-24T14:24:49;10.75;;;6.25;;
27163;SDS011;14685;50.618;7.024;2023-04-24T14:27:16;8.05;;;5.63;;
27163;SDS011;14685;50.618;7.024;2023-04-24T14:29:43;8.52;;;6.00;;
27163;SDS011;14685;50.618;7.024;2023-04-24T14:32:11;7.90;;;5.18;;
27163;SDS011;14685;50.618;7.024;2023-04-24T14:34:41;8.55;;;5.30;;
27163;SDS011;14685;50.618;7.024;2023-04-24T14:37:08;9.18;;;5.90;;
27163;SDS011;14685;50.618;7.024;2023-04-24T14:39:36;11.63;;;8.15;;
27163;SDS011;14685;50.618;7.024;2023-04-24T14:42:04;9.75;;;6.13;;
27163;SDS011;14685;50.618;7.024;2023-04-24T14:44:31;8.27;;;4.95;;
27163;SDS011;14685;50.618;7.024;2023-04-24T14:46:58;11.25;;;5.90;;
27163;SDS011;14685;50.618;7.024;2023-04-24T14:49:26;13.30;;;5.97;;
27163;SDS011;14685;50.618;7.024;2023-04-24T14:51:52;10.10;;;6.28;;
27163;SDS011;14685;50.618;7.024;2023-04-24T14:54:19;9.27;;;5.85;;
27163;SDS011;14685;50.618;7.024;2023-04-24T14:56:49;11.07;;;7.00;;
27163;SDS011;14685;50.618;7.024;2023-04-24T14:59:16;8.77;;;5.55;;
27163;SDS011;14685;50.618;7.024;2023-04-24T15:01:43;11.20;;;7.40;;
27163;SDS011;14685;50.618;7.024;2023-04-24T15:04:10;10.38;;;6.72;;
27163;SDS011;14685;50.618;7.024;2023-04-24T15:06:39;12.93;;;8.52;;
27163;SDS011;14685;50.618;7.024;2023-04-24T15:09:06;7.93;;;6.55;;
27163;SDS011;14685;50.618;7.024;2023-04-24T15:11:33;7.80;;;5.63;;
27163;SDS011;14685;50.618;7.024;2023-04-24T15:14:00;9.00;;;5.78;;
27163;SDS011;14685;50.618;7.024;2023-04-24T15:16:32;8.77;;;6.20;;